This is the latest recevied weather packets stored in our database for station/object VA3ECP. If no packets are shown the sender has not sent any weather packets the latest 10 day(s).
| Time | Temp. | Humidity | Pressure | Rain* | Wind** | Luminosity | Snow |
|---|---|---|---|---|---|---|---|
| 1777570823 | 8.89° C | 78% | 1008.8 hPa | 0 mm | - | - | - |
| 1777564226 | 7.78° C | 83% | 1008.5 hPa | 0 mm | - | - | - |
| 1777559427 | 7.78° C | 84% | 1008 hPa | 0 mm | - | - | - |
| 1777555821 | 6.11° C | 87% | 1007.8 hPa | 0 mm | - | - | - |
| 1777553428 | 5° C | 90% | 1007.9 hPa | 0 mm | - | - | - |
| 1777551639 | 5° C | 92% | 1007.6 hPa | 0 mm | - | - | - |
| 1777550424 | 5° C | 93% | 1007.4 hPa | 0 mm | - | - | - |
| 1777545625 | 5.56° C | 97% | 1006.1 hPa | 0 mm | - | - | - |
| 1777545028 | 5.56° C | 97% | 1006.1 hPa | 0.25 mm | - | - | - |
| 1777543220 | 5.56° C | 97% | 1005.9 hPa | 0.25 mm | - | - | - |
| 1777540223 | 6.11° C | 97% | 1005.4 hPa | 0.51 mm | - | - | - |
| 1777539020 | 6.11° C | 97% | 1005.2 hPa | 0.76 mm | - | - | - |
| 1777537831 | 6.11° C | 97% | 1005.3 hPa | 0.76 mm | - | - | - |
| 1777537225 | 6.11° C | 97% | 1005.2 hPa | 1.02 mm | - | - | - |
| 1777533626 | 6.67° C | 97% | 1005 hPa | 1.27 mm | - | - | - |
| 1777531823 | 6.67° C | 97% | 1005 hPa | 3.56 mm | - | - | - |
| 1777530624 | 6.67° C | 97% | 1005.2 hPa | 3.56 mm | - | - | - |
| 1777529436 | 7.22° C | 97% | 1005.2 hPa | 3.05 mm | - | - | - |
| 1777528822 | 7.22° C | 97% | 1005.3 hPa | 2.54 mm | - | - | - |
| 1777525829 | 7.22° C | 97% | 1005.8 hPa | 2.03 mm | - | - | - |
| 1777525220 | 7.78° C | 97% | 1005.9 hPa | 1.78 mm | - | - | - |
| 1777524026 | 7.78° C | 97% | 1006.1 hPa | 1.52 mm | - | - | - |
| 1777518632 | 8.33° C | 97% | 1007 hPa | 2.03 mm | - | - | - |
| 1777518024 | 8.33° C | 97% | 1007.1 hPa | 2.03 mm | - | - | - |
| 1777513823 | 9.44° C | 97% | 1008 hPa | 3.81 mm | - | - | - |
* Rain latest hour (hover to see other rain measurements)
** Current wind speed in m/s (hover to see current wind gust speed)